sensor_id;sensor_type;location;lat;lon;timestamp;P1;durP1;ratioP1;P2;durP2;ratioP2
28802;SDS011;15949;55.656;37.422;2023-08-06T00:00:23;9.00;;;6.25;;
28802;SDS011;15949;55.656;37.422;2023-08-06T00:05:29;8.27;;;6.05;;
28802;SDS011;15949;55.656;37.422;2023-08-06T00:10:34;8.88;;;5.85;;
28802;SDS011;15949;55.656;37.422;2023-08-06T00:15:40;10.50;;;6.65;;
28802;SDS011;15949;55.656;37.422;2023-08-06T00:20:46;14.35;;;6.60;;
28802;SDS011;15949;55.656;37.422;2023-08-06T00:25:51;11.50;;;6.50;;
28802;SDS011;15949;55.656;37.422;2023-08-06T00:30:57;10.65;;;6.68;;
28802;SDS011;15949;55.656;37.422;2023-08-06T00:36:03;10.60;;;6.72;;
28802;SDS011;15949;55.656;37.422;2023-08-06T00:41:08;11.45;;;7.03;;
28802;SDS011;15949;55.656;37.422;2023-08-06T00:46:14;15.27;;;7.53;;
28802;SDS011;15949;55.656;37.422;2023-08-06T00:51:20;17.45;;;7.68;;
28802;SDS011;15949;55.656;37.422;2023-08-06T00:56:26;15.00;;;9.77;;
28802;SDS011;15949;55.656;37.422;2023-08-06T01:01:32;23.20;;;12.02;;
28802;SDS011;15949;55.656;37.422;2023-08-06T01:06:39;17.90;;;12.30;;
28802;SDS011;15949;55.656;37.422;2023-08-06T01:11:58;21.60;;;11.10;;
28802;SDS011;15949;55.656;37.422;2023-08-06T01:17:11;14.23;;;9.38;;
28802;SDS011;15949;55.656;37.422;2023-08-06T01:22:18;12.70;;;8.90;;
28802;SDS011;15949;55.656;37.422;2023-08-06T01:27:37;17.48;;;7.68;;
28802;SDS011;15949;55.656;37.422;2023-08-06T01:32:49;12.10;;;8.13;;
28802;SDS011;15949;55.656;37.422;2023-08-06T01:37:59;17.33;;;8.63;;
28802;SDS011;15949;55.656;37.422;2023-08-06T01:43:05;14.60;;;7.93;;
28802;SDS011;15949;55.656;37.422;2023-08-06T01:48:10;13.35;;;7.80;;
28802;SDS011;15949;55.656;37.422;2023-08-06T01:53:16;17.65;;;7.88;;
28802;SDS011;15949;55.656;37.422;2023-08-06T01:58:22;18.17;;;7.55;;
28802;SDS011;15949;55.656;37.422;2023-08-06T02:03:28;15.00;;;7.90;;
28802;SDS011;15949;55.656;37.422;2023-08-06T02:08:33;17.70;;;8.50;;
28802;SDS011;15949;55.656;37.422;2023-08-06T02:13:39;13.68;;;7.70;;
28802;SDS011;15949;55.656;37.422;2023-08-06T02:18:45;16.15;;;8.45;;
28802;SDS011;15949;55.656;37.422;2023-08-06T02:23:51;17.98;;;7.97;;
28802;SDS011;15949;55.656;37.422;2023-08-06T02:28:56;20.35;;;7.43;;
28802;SDS011;15949;55.656;37.422;2023-08-06T02:34:02;11.13;;;7.68;;
28802;SDS011;15949;55.656;37.422;2023-08-06T02:39:08;13.07;;;7.57;;
28802;SDS011;15949;55.656;37.422;2023-08-06T02:44:14;10.48;;;7.63;;
28802;SDS011;15949;55.656;37.422;2023-08-06T02:49:19;9.88;;;7.30;;
28802;SDS011;15949;55.656;37.422;2023-08-06T02:54:25;15.60;;;7.35;;
28802;SDS011;15949;55.656;37.422;2023-08-06T02:59:31;15.55;;;7.20;;
28802;SDS011;15949;55.656;37.422;2023-08-06T03:04:37;18.02;;;7.43;;
28802;SDS011;15949;55.656;37.422;2023-08-06T03:09:42;13.57;;;7.32;;
28802;SDS011;15949;55.656;37.422;2023-08-06T03:14:48;14.63;;;7.63;;
28802;SDS011;15949;55.656;37.422;2023-08-06T03:19:54;12.20;;;7.20;;
28802;SDS011;15949;55.656;37.422;2023-08-06T03:24:59;12.75;;;6.65;;
28802;SDS011;15949;55.656;37.422;2023-08-06T03:30:05;12.60;;;6.90;;
28802;SDS011;15949;55.656;37.422;2023-08-06T03:35:11;13.50;;;6.10;;
28802;SDS011;15949;55.656;37.422;2023-08-06T03:40:17;11.35;;;6.13;;
28802;SDS011;15949;55.656;37.422;2023-08-06T03:45:23;14.07;;;5.78;;
28802;SDS011;15949;55.656;37.422;2023-08-06T03:50:29;15.38;;;6.18;;
28802;SDS011;15949;55.656;37.422;2023-08-06T03:55:34;13.63;;;6.15;;
28802;SDS011;15949;55.656;37.422;2023-08-06T04:00:40;12.60;;;5.78;;
28802;SDS011;15949;55.656;37.422;2023-08-06T04:05:46;11.50;;;5.80;;
28802;SDS011;15949;55.656;37.422;2023-08-06T04:10:52;14.13;;;6.20;;
28802;SDS011;15949;55.656;37.422;2023-08-06T04:16:04;13.73;;;5.10;;
28802;SDS011;15949;55.656;37.422;2023-08-06T04:21:10;11.43;;;5.00;;
28802;SDS011;15949;55.656;37.422;2023-08-06T04:26:16;13.82;;;5.10;;
28802;SDS011;15949;55.656;37.422;2023-08-06T04:31:22;10.50;;;5.57;;
28802;SDS011;15949;55.656;37.422;2023-08-06T04:36:28;11.18;;;5.35;;
28802;SDS011;15949;55.656;37.422;2023-08-06T04:41:34;11.07;;;5.50;;
28802;SDS011;15949;55.656;37.422;2023-08-06T04:46:39;14.15;;;5.35;;
28802;SDS011;15949;55.656;37.422;2023-08-06T04:51:45;13.27;;;5.72;;
28802;SDS011;15949;55.656;37.422;2023-08-06T04:56:51;9.40;;;4.70;;
28802;SDS011;15949;55.656;37.422;2023-08-06T05:01:56;9.52;;;4.93;;
28802;SDS011;15949;55.656;37.422;2023-08-06T05:07:02;14.45;;;5.80;;
28802;SDS011;15949;55.656;37.422;2023-08-06T05:12:09;9.10;;;5.25;;
28802;SDS011;15949;55.656;37.422;2023-08-06T05:17:15;10.45;;;4.72;;
28802;SDS011;15949;55.656;37.422;2023-08-06T05:22:20;11.98;;;4.47;;
28802;SDS011;15949;55.656;37.422;2023-08-06T05:27:26;13.57;;;4.95;;
28802;SDS011;15949;55.656;37.422;2023-08-06T05:32:32;9.70;;;5.10;;
28802;SDS011;15949;55.656;37.422;2023-08-06T05:37:37;11.40;;;4.43;;
28802;SDS011;15949;55.656;37.422;2023-08-06T05:42:43;9.07;;;4.53;;
28802;SDS011;15949;55.656;37.422;2023-08-06T05:47:49;8.48;;;4.88;;
28802;SDS011;15949;55.656;37.422;2023-08-06T05:52:55;12.48;;;4.40;;
28802;SDS011;15949;55.656;37.422;2023-08-06T05:58:00;8.15;;;4.47;;
28802;SDS011;15949;55.656;37.422;2023-08-06T06:03:06;8.32;;;4.45;;
28802;SDS011;15949;55.656;37.422;2023-08-06T06:08:12;10.52;;;5.00;;
28802;SDS011;15949;55.656;37.422;2023-08-06T06:13:17;8.63;;;3.95;;
28802;SDS011;15949;55.656;37.422;2023-08-06T06:18:23;10.23;;;4.28;;
28802;SDS011;15949;55.656;37.422;2023-08-06T06:23:29;8.10;;;4.20;;
28802;SDS011;15949;55.656;37.422;2023-08-06T06:28:35;10.25;;;4.03;;
28802;SDS011;15949;55.656;37.422;2023-08-06T06:33:40;10.98;;;4.00;;
28802;SDS011;15949;55.656;37.422;2023-08-06T06:38:46;9.07;;;4.10;;
28802;SDS011;15949;55.656;37.422;2023-08-06T06:43:53;13.32;;;4.60;;
28802;SDS011;15949;55.656;37.422;2023-08-06T06:48:59;10.65;;;4.38;;
28802;SDS011;15949;55.656;37.422;2023-08-06T06:54:04;10.65;;;4.20;;
28802;SDS011;15949;55.656;37.422;2023-08-06T06:59:10;8.05;;;4.00;;
28802;SDS011;15949;55.656;37.422;2023-08-06T07:04:16;7.13;;;3.90;;
28802;SDS011;15949;55.656;37.422;2023-08-06T07:09:22;8.73;;;4.10;;
28802;SDS011;15949;55.656;37.422;2023-08-06T07:14:28;10.00;;;3.97;;
28802;SDS011;15949;55.656;37.422;2023-08-06T07:19:34;9.02;;;3.88;;
28802;SDS011;15949;55.656;37.422;2023-08-06T07:24:39;5.35;;;3.97;;
28802;SDS011;15949;55.656;37.422;2023-08-06T07:29:45;12.48;;;4.43;;
28802;SDS011;15949;55.656;37.422;2023-08-06T07:34:51;8.32;;;3.67;;
28802;SDS011;15949;55.656;37.422;2023-08-06T07:40:02;6.28;;;3.85;;
28802;SDS011;15949;55.656;37.422;2023-08-06T07:45:09;5.60;;;3.63;;
28802;SDS011;15949;55.656;37.422;2023-08-06T07:50:15;8.07;;;4.10;;
28802;SDS011;15949;55.656;37.422;2023-08-06T07:55:21;10.40;;;3.55;;
28802;SDS011;15949;55.656;37.422;2023-08-06T08:00:26;9.15;;;3.95;;
28802;SDS011;15949;55.656;37.422;2023-08-06T08:05:32;6.72;;;4.43;;
28802;SDS011;15949;55.656;37.422;2023-08-06T08:10:38;7.10;;;4.07;;
28802;SDS011;15949;55.656;37.422;2023-08-06T08:15:44;10.35;;;4.40;;
28802;SDS011;15949;55.656;37.422;2023-08-06T08:20:50;8.80;;;3.70;;
28802;SDS011;15949;55.656;37.422;2023-08-06T08:25:55;11.73;;;4.10;;
28802;SDS011;15949;55.656;37.422;2023-08-06T08:31:01;15.43;;;4.40;;
28802;SDS011;15949;55.656;37.422;2023-08-06T08:36:07;11.48;;;4.13;;
28802;SDS011;15949;55.656;37.422;2023-08-06T08:41:15;8.80;;;4.47;;
28802;SDS011;15949;55.656;37.422;2023-08-06T08:46:21;10.32;;;4.05;;
28802;SDS011;15949;55.656;37.422;2023-08-06T08:51:27;10.43;;;4.05;;
28802;SDS011;15949;55.656;37.422;2023-08-06T08:56:34;8.50;;;3.65;;
28802;SDS011;15949;55.656;37.422;2023-08-06T09:01:40;7.60;;;4.38;;
28802;SDS011;15949;55.656;37.422;2023-08-06T09:06:50;7.13;;;4.00;;
28802;SDS011;15949;55.656;37.422;2023-08-06T09:11:59;9.80;;;4.03;;
28802;SDS011;15949;55.656;37.422;2023-08-06T09:17:07;9.75;;;4.05;;
28802;SDS011;15949;55.656;37.422;2023-08-06T09:22:16;7.10;;;4.05;;
28802;SDS011;15949;55.656;37.422;2023-08-06T09:27:22;9.63;;;4.28;;
28802;SDS011;15949;55.656;37.422;2023-08-06T09:32:28;10.70;;;4.00;;
28802;SDS011;15949;55.656;37.422;2023-08-06T09:37:49;7.55;;;4.00;;
28802;SDS011;15949;55.656;37.422;2023-08-06T09:42:55;10.80;;;4.20;;
28802;SDS011;15949;55.656;37.422;2023-08-06T09:48:03;12.85;;;4.57;;
28802;SDS011;15949;55.656;37.422;2023-08-06T09:53:10;10.48;;;4.57;;
28802;SDS011;15949;55.656;37.422;2023-08-06T09:58:17;8.77;;;4.33;;
28802;SDS011;15949;55.656;37.422;2023-08-06T10:03:23;11.77;;;4.63;;
28802;SDS011;15949;55.656;37.422;2023-08-06T10:08:29;8.93;;;4.68;;
28802;SDS011;15949;55.656;37.422;2023-08-06T10:13:35;14.02;;;4.57;;
28802;SDS011;15949;55.656;37.422;2023-08-06T10:18:42;7.73;;;4.40;;
28802;SDS011;15949;55.656;37.422;2023-08-06T10:23:53;13.55;;;4.53;;
28802;SDS011;15949;55.656;37.422;2023-08-06T10:28:59;14.05;;;4.43;;
28802;SDS011;15949;55.656;37.422;2023-08-06T10:34:05;8.35;;;4.43;;
28802;SDS011;15949;55.656;37.422;2023-08-06T10:39:14;7.53;;;4.40;;
28802;SDS011;15949;55.656;37.422;2023-08-06T10:44:21;11.40;;;4.70;;
28802;SDS011;15949;55.656;37.422;2023-08-06T10:49:27;8.63;;;4.45;;
28802;SDS011;15949;55.656;37.422;2023-08-06T10:54:32;8.23;;;4.72;;
28802;SDS011;15949;55.656;37.422;2023-08-06T10:59:38;7.30;;;4.72;;
28802;SDS011;15949;55.656;37.422;2023-08-06T11:04:45;11.88;;;4.50;;
28802;SDS011;15949;55.656;37.422;2023-08-06T11:09:50;8.75;;;4.43;;
28802;SDS011;15949;55.656;37.422;2023-08-06T11:14:58;10.80;;;4.50;;
28802;SDS011;15949;55.656;37.422;2023-08-06T11:20:05;9.60;;;4.68;;
28802;SDS011;15949;55.656;37.422;2023-08-06T11:25:11;9.35;;;4.50;;
28802;SDS011;15949;55.656;37.422;2023-08-06T11:30:16;7.95;;;4.47;;
28802;SDS011;15949;55.656;37.422;2023-08-06T11:35:22;7.65;;;4.00;;
28802;SDS011;15949;55.656;37.422;2023-08-06T11:40:27;10.63;;;4.38;;
28802;SDS011;15949;55.656;37.422;2023-08-06T11:45:35;10.45;;;4.65;;
28802;SDS011;15949;55.656;37.422;2023-08-06T11:50:41;5.43;;;4.53;;
28802;SDS011;15949;55.656;37.422;2023-08-06T11:55:46;11.90;;;4.63;;
28802;SDS011;15949;55.656;37.422;2023-08-06T12:00:52;9.68;;;4.65;;
28802;SDS011;15949;55.656;37.422;2023-08-06T12:05:58;5.95;;;4.18;;
28802;SDS011;15949;55.656;37.422;2023-08-06T12:11:03;10.48;;;4.50;;
28802;SDS011;15949;55.656;37.422;2023-08-06T12:16:09;16.60;;;11.55;;
28802;SDS011;15949;55.656;37.422;2023-08-06T12:21:15;8.88;;;4.50;;
28802;SDS011;15949;55.656;37.422;2023-08-06T12:26:20;6.28;;;4.20;;
28802;SDS011;15949;55.656;37.422;2023-08-06T12:31:26;9.07;;;4.07;;
28802;SDS011;15949;55.656;37.422;2023-08-06T12:36:31;9.85;;;4.40;;
28802;SDS011;15949;55.656;37.422;2023-08-06T12:41:37;9.07;;;4.03;;
28802;SDS011;15949;55.656;37.422;2023-08-06T12:46:42;8.73;;;5.13;;
28802;SDS011;15949;55.656;37.422;2023-08-06T12:51:48;11.07;;;5.65;;
28802;SDS011;15949;55.656;37.422;2023-08-06T12:56:54;11.90;;;4.38;;
28802;SDS011;15949;55.656;37.422;2023-08-06T13:02:00;9.95;;;4.90;;
28802;SDS011;15949;55.656;37.422;2023-08-06T13:07:06;10.38;;;5.47;;
28802;SDS011;15949;55.656;37.422;2023-08-06T13:12:11;12.40;;;4.97;;
28802;SDS011;15949;55.656;37.422;2023-08-06T13:17:17;7.35;;;4.45;;
28802;SDS011;15949;55.656;37.422;2023-08-06T13:22:22;8.77;;;4.63;;
28802;SDS011;15949;55.656;37.422;2023-08-06T13:27:28;9.23;;;4.20;;
28802;SDS011;15949;55.656;37.422;2023-08-06T13:32:33;13.88;;;4.85;;
28802;SDS011;15949;55.656;37.422;2023-08-06T13:37:41;8.50;;;4.22;;
28802;SDS011;15949;55.656;37.422;2023-08-06T13:42:47;7.28;;;4.93;;
28802;SDS011;15949;55.656;37.422;2023-08-06T13:47:53;11.15;;;4.20;;
28802;SDS011;15949;55.656;37.422;2023-08-06T13:53:00;11.35;;;4.35;;
28802;SDS011;15949;55.656;37.422;2023-08-06T13:58:06;8.10;;;4.13;;
28802;SDS011;15949;55.656;37.422;2023-08-06T14:03:11;23.00;;;13.50;;
28802;SDS011;15949;55.656;37.422;2023-08-06T14:08:17;23.55;;;9.15;;
28802;SDS011;15949;55.656;37.422;2023-08-06T14:13:25;9.00;;;4.57;;
28802;SDS011;15949;55.656;37.422;2023-08-06T14:18:31;7.47;;;4.03;;
28802;SDS011;15949;55.656;37.422;2023-08-06T14:23:36;10.77;;;3.88;;
28802;SDS011;15949;55.656;37.422;2023-08-06T14:28:42;10.00;;;4.38;;
28802;SDS011;15949;55.656;37.422;2023-08-06T14:33:47;14.10;;;6.90;;
28802;SDS011;15949;55.656;37.422;2023-08-06T14:38:53;14.82;;;6.22;;
28802;SDS011;15949;55.656;37.422;2023-08-06T14:43:59;12.20;;;4.68;;
28802;SDS011;15949;55.656;37.422;2023-08-06T14:49:04;10.60;;;4.60;;
28802;SDS011;15949;55.656;37.422;2023-08-06T14:54:10;16.02;;;4.80;;
28802;SDS011;15949;55.656;37.422;2023-08-06T14:59:16;12.45;;;5.32;;
28802;SDS011;15949;55.656;37.422;2023-08-06T15:04:21;13.00;;;5.45;;
28802;SDS011;15949;55.656;37.422;2023-08-06T15:09:28;9.93;;;5.30;;
28802;SDS011;15949;55.656;37.422;2023-08-06T15:14:34;10.68;;;4.95;;
28802;SDS011;15949;55.656;37.422;2023-08-06T15:19:39;9.80;;;5.18;;
28802;SDS011;15949;55.656;37.422;2023-08-06T15:24:45;9.13;;;5.32;;
28802;SDS011;15949;55.656;37.422;2023-08-06T15:29:51;9.52;;;5.35;;
28802;SDS011;15949;55.656;37.422;2023-08-06T15:34:57;9.07;;;5.00;;
28802;SDS011;15949;55.656;37.422;2023-08-06T15:40:03;14.13;;;5.10;;
28802;SDS011;15949;55.656;37.422;2023-08-06T15:45:08;10.60;;;6.00;;
28802;SDS011;15949;55.656;37.422;2023-08-06T15:50:14;8.82;;;5.18;;
28802;SDS011;15949;55.656;37.422;2023-08-06T15:55:20;13.57;;;5.20;;
28802;SDS011;15949;55.656;37.422;2023-08-06T16:00:25;8.20;;;4.85;;
28802;SDS011;15949;55.656;37.422;2023-08-06T16:05:31;12.15;;;4.90;;
28802;SDS011;15949;55.656;37.422;2023-08-06T16:10:36;14.93;;;5.70;;
28802;SDS011;15949;55.656;37.422;2023-08-06T16:15:42;9.07;;;5.32;;
28802;SDS011;15949;55.656;37.422;2023-08-06T16:20:48;12.18;;;5.13;;
28802;SDS011;15949;55.656;37.422;2023-08-06T16:25:53;12.98;;;5.40;;
28802;SDS011;15949;55.656;37.422;2023-08-06T16:30:59;13.00;;;5.50;;
28802;SDS011;15949;55.656;37.422;2023-08-06T16:36:04;10.77;;;5.60;;
28802;SDS011;15949;55.656;37.422;2023-08-06T16:41:10;15.73;;;5.50;;
28802;SDS011;15949;55.656;37.422;2023-08-06T16:46:16;11.20;;;5.28;;
28802;SDS011;15949;55.656;37.422;2023-08-06T16:51:21;12.63;;;5.32;;
28802;SDS011;15949;55.656;37.422;2023-08-06T16:56:27;12.00;;;5.00;;
28802;SDS011;15949;55.656;37.422;2023-08-06T17:01:33;15.10;;;5.70;;
28802;SDS011;15949;55.656;37.422;2023-08-06T17:06:40;13.23;;;5.95;;
28802;SDS011;15949;55.656;37.422;2023-08-06T17:11:46;13.48;;;6.13;;
28802;SDS011;15949;55.656;37.422;2023-08-06T17:16:53;11.23;;;5.88;;
28802;SDS011;15949;55.656;37.422;2023-08-06T17:21:58;14.55;;;6.07;;
28802;SDS011;15949;55.656;37.422;2023-08-06T17:27:06;11.57;;;6.10;;
28802;SDS011;15949;55.656;37.422;2023-08-06T17:32:11;13.27;;;6.25;;
28802;SDS011;15949;55.656;37.422;2023-08-06T17:37:18;14.90;;;5.80;;
28802;SDS011;15949;55.656;37.422;2023-08-06T17:42:23;12.55;;;5.65;;
28802;SDS011;15949;55.656;37.422;2023-08-06T17:47:29;10.40;;;5.32;;
28802;SDS011;15949;55.656;37.422;2023-08-06T17:52:34;11.13;;;6.07;;
28802;SDS011;15949;55.656;37.422;2023-08-06T17:57:40;15.30;;;6.63;;
28802;SDS011;15949;55.656;37.422;2023-08-06T18:02:47;12.40;;;5.50;;
28802;SDS011;15949;55.656;37.422;2023-08-06T18:07:52;14.25;;;6.22;;
28802;SDS011;15949;55.656;37.422;2023-08-06T18:12:58;12.10;;;5.80;;
28802;SDS011;15949;55.656;37.422;2023-08-06T18:18:03;14.25;;;6.00;;
28802;SDS011;15949;55.656;37.422;2023-08-06T18:23:09;16.00;;;5.60;;
28802;SDS011;15949;55.656;37.422;2023-08-06T18:28:15;12.93;;;5.82;;
28802;SDS011;15949;55.656;37.422;2023-08-06T18:33:20;11.35;;;6.18;;
28802;SDS011;15949;55.656;37.422;2023-08-06T18:38:26;11.90;;;6.57;;
28802;SDS011;15949;55.656;37.422;2023-08-06T18:43:32;14.68;;;7.10;;
28802;SDS011;15949;55.656;37.422;2023-08-06T18:48:38;11.30;;;6.90;;
28802;SDS011;15949;55.656;37.422;2023-08-06T18:53:44;15.02;;;7.05;;
28802;SDS011;15949;55.656;37.422;2023-08-06T18:58:49;12.82;;;6.63;;
28802;SDS011;15949;55.656;37.422;2023-08-06T19:03:55;10.55;;;5.90;;
28802;SDS011;15949;55.656;37.422;2023-08-06T19:09:00;9.02;;;6.32;;
28802;SDS011;15949;55.656;37.422;2023-08-06T19:14:06;9.60;;;6.13;;
28802;SDS011;15949;55.656;37.422;2023-08-06T19:19:13;11.13;;;5.22;;
28802;SDS011;15949;55.656;37.422;2023-08-06T19:24:19;12.40;;;4.93;;
28802;SDS011;15949;55.656;37.422;2023-08-06T19:29:25;13.77;;;5.57;;
28802;SDS011;15949;55.656;37.422;2023-08-06T19:34:30;9.73;;;6.65;;
28802;SDS011;15949;55.656;37.422;2023-08-06T19:39:36;14.35;;;6.28;;
28802;SDS011;15949;55.656;37.422;2023-08-06T19:44:41;12.05;;;5.82;;
28802;SDS011;15949;55.656;37.422;2023-08-06T19:49:47;11.50;;;5.65;;
28802;SDS011;15949;55.656;37.422;2023-08-06T19:54:53;10.85;;;5.40;;
28802;SDS011;15949;55.656;37.422;2023-08-06T20:00:00;8.52;;;4.80;;
28802;SDS011;15949;55.656;37.422;2023-08-06T20:05:06;8.77;;;4.40;;
28802;SDS011;15949;55.656;37.422;2023-08-06T20:10:12;8.70;;;4.57;;
28802;SDS011;15949;55.656;37.422;2023-08-06T20:15:18;7.65;;;4.60;;
28802;SDS011;15949;55.656;37.422;2023-08-06T20:20:24;6.82;;;4.22;;
28802;SDS011;15949;55.656;37.422;2023-08-06T20:25:29;6.47;;;4.50;;
28802;SDS011;15949;55.656;37.422;2023-08-06T20:30:39;9.38;;;4.40;;
28802;SDS011;15949;55.656;37.422;2023-08-06T20:35:46;12.07;;;4.65;;
28802;SDS011;15949;55.656;37.422;2023-08-06T20:40:51;6.97;;;4.13;;
28802;SDS011;15949;55.656;37.422;2023-08-06T20:45:57;7.50;;;4.43;;
28802;SDS011;15949;55.656;37.422;2023-08-06T20:51:05;9.27;;;4.20;;
28802;SDS011;15949;55.656;37.422;2023-08-06T20:56:11;9.88;;;4.07;;
28802;SDS011;15949;55.656;37.422;2023-08-06T21:01:17;8.43;;;4.63;;
28802;SDS011;15949;55.656;37.422;2023-08-06T21:06:23;8.35;;;4.75;;
28802;SDS011;15949;55.656;37.422;2023-08-06T21:11:29;10.23;;;4.68;;
28802;SDS011;15949;55.656;37.422;2023-08-06T21:16:34;7.55;;;4.50;;
28802;SDS011;15949;55.656;37.422;2023-08-06T21:21:40;9.38;;;4.63;;
28802;SDS011;15949;55.656;37.422;2023-08-06T21:26:46;6.55;;;4.47;;
28802;SDS011;15949;55.656;37.422;2023-08-06T21:31:51;11.13;;;4.53;;
28802;SDS011;15949;55.656;37.422;2023-08-06T21:36:57;10.70;;;4.60;;
28802;SDS011;15949;55.656;37.422;2023-08-06T21:42:02;7.97;;;4.93;;
28802;SDS011;15949;55.656;37.422;2023-08-06T21:47:08;11.30;;;4.53;;
28802;SDS011;15949;55.656;37.422;2023-08-06T21:52:14;8.60;;;4.93;;
28802;SDS011;15949;55.656;37.422;2023-08-06T21:57:19;6.57;;;4.40;;
28802;SDS011;15949;55.656;37.422;2023-08-06T22:02:25;8.70;;;4.45;;
28802;SDS011;15949;55.656;37.422;2023-08-06T22:07:30;6.43;;;4.43;;
28802;SDS011;15949;55.656;37.422;2023-08-06T22:12:36;8.00;;;4.10;;
28802;SDS011;15949;55.656;37.422;2023-08-06T22:17:41;8.93;;;4.68;;
28802;SDS011;15949;55.656;37.422;2023-08-06T22:22:47;8.05;;;4.43;;
28802;SDS011;15949;55.656;37.422;2023-08-06T22:27:52;7.28;;;4.35;;
28802;SDS011;15949;55.656;37.422;2023-08-06T22:32:58;7.45;;;4.47;;
28802;SDS011;15949;55.656;37.422;2023-08-06T22:38:04;7.05;;;4.20;;
28802;SDS011;15949;55.656;37.422;2023-08-06T22:43:10;7.78;;;4.22;;
28802;SDS011;15949;55.656;37.422;2023-08-06T22:48:15;8.57;;;4.20;;
28802;SDS011;15949;55.656;37.422;2023-08-06T22:53:21;5.10;;;3.95;;
28802;SDS011;15949;55.656;37.422;2023-08-06T22:58:27;7.75;;;3.92;;
28802;SDS011;15949;55.656;37.422;2023-08-06T23:03:32;10.82;;;3.95;;
28802;SDS011;15949;55.656;37.422;2023-08-06T23:08:38;15.85;;;4.30;;
28802;SDS011;15949;55.656;37.422;2023-08-06T23:13:43;8.68;;;3.78;;
28802;SDS011;15949;55.656;37.422;2023-08-06T23:18:49;9.18;;;4.07;;
28802;SDS011;15949;55.656;37.422;2023-08-06T23:23:54;5.20;;;4.10;;
28802;SDS011;15949;55.656;37.422;2023-08-06T23:29:00;7.88;;;3.63;;
28802;SDS011;15949;55.656;37.422;2023-08-06T23:34:06;10.23;;;3.85;;
28802;SDS011;15949;55.656;37.422;2023-08-06T23:39:12;6.90;;;3.40;;
28802;SDS011;15949;55.656;37.422;2023-08-06T23:44:18;5.00;;;3.60;;
28802;SDS011;15949;55.656;37.422;2023-08-06T23:49:23;7.30;;;3.80;;
28802;SDS011;15949;55.656;37.422;2023-08-06T23:54:29;9.57;;;3.60;;
28802;SDS011;15949;55.656;37.422;2023-08-06T23:59:34;5.35;;;3.67;;
